sensor_id;sensor_type;location;lat;lon;timestamp;temperature;humidity
610;DHT22;292;48.800;9.216;2022-12-18T00:02:19;-4.10;77.00
610;DHT22;292;48.800;9.216;2022-12-18T00:04:48;-4.10;77.00
610;DHT22;292;48.800;9.216;2022-12-18T00:07:16;-4.10;77.00
610;DHT22;292;48.800;9.216;2022-12-18T00:09:43;-4.10;76.80
610;DHT22;292;48.800;9.216;2022-12-18T00:12:11;-4.10;76.70
610;DHT22;292;48.800;9.216;2022-12-18T00:14:39;-4.10;76.70
610;DHT22;292;48.800;9.216;2022-12-18T00:17:06;-4.10;76.70
610;DHT22;292;48.800;9.216;2022-12-18T00:19:33;-4.20;76.50
610;DHT22;292;48.800;9.216;2022-12-18T00:22:02;-4.20;76.70
610;DHT22;292;48.800;9.216;2022-12-18T00:24:29;-4.20;76.70
610;DHT22;292;48.800;9.216;2022-12-18T00:26:56;-4.20;76.50
610;DHT22;292;48.800;9.216;2022-12-18T00:29:24;-4.30;76.50
610;DHT22;292;48.800;9.216;2022-12-18T00:31:51;-4.40;76.50
610;DHT22;292;48.800;9.216;2022-12-18T00:34:19;-4.40;76.70
610;DHT22;292;48.800;9.216;2022-12-18T00:36:47;-4.40;77.10
610;DHT22;292;48.800;9.216;2022-12-18T00:39:16;-4.50;77.00
610;DHT22;292;48.800;9.216;2022-12-18T00:41:44;-4.50;77.10
610;DHT22;292;48.800;9.216;2022-12-18T00:44:28;-4.50;77.10
610;DHT22;292;48.800;9.216;2022-12-18T00:46:56;-4.50;77.10
610;DHT22;292;48.800;9.216;2022-12-18T00:49:24;-4.50;77.10
610;DHT22;292;48.800;9.216;2022-12-18T00:51:51;-4.60;77.10
610;DHT22;292;48.800;9.216;2022-12-18T00:54:20;-4.60;77.30
610;DHT22;292;48.800;9.216;2022-12-18T00:56:47;-4.60;77.30
610;DHT22;292;48.800;9.216;2022-12-18T00:59:14;-4.60;77.30
610;DHT22;292;48.800;9.216;2022-12-18T01:01:42;-4.60;77.40
610;DHT22;292;48.800;9.216;2022-12-18T01:04:10;-4.60;77.30
610;DHT22;292;48.800;9.216;2022-12-18T01:06:37;-4.60;77.40
610;DHT22;292;48.800;9.216;2022-12-18T01:09:04;-4.70;77.40
610;DHT22;292;48.800;9.216;2022-12-18T01:11:33;-4.70;77.40
610;DHT22;292;48.800;9.216;2022-12-18T01:13:59;-4.70;77.40
610;DHT22;292;48.800;9.216;2022-12-18T01:16:26;-4.70;77.50
610;DHT22;292;48.800;9.216;2022-12-18T01:18:54;-4.70;77.40
610;DHT22;292;48.800;9.216;2022-12-18T01:21:22;-4.70;77.40
610;DHT22;292;48.800;9.216;2022-12-18T01:23:54;-4.70;77.50
610;DHT22;292;48.800;9.216;2022-12-18T01:26:22;-4.80;77.30
610;DHT22;292;48.800;9.216;2022-12-18T01:28:53;-4.90;77.40
610;DHT22;292;48.800;9.216;2022-12-18T01:31:22;-5.00;77.40
610;DHT22;292;48.800;9.216;2022-12-18T01:33:49;-5.00;77.80
610;DHT22;292;48.800;9.216;2022-12-18T01:36:18;-5.00;77.80
610;DHT22;292;48.800;9.216;2022-12-18T01:38:46;-5.00;77.80
610;DHT22;292;48.800;9.216;2022-12-18T01:41:14;-5.10;77.80
610;DHT22;292;48.800;9.216;2022-12-18T01:43:47;-5.10;78.00
610;DHT22;292;48.800;9.216;2022-12-18T01:46:17;-5.10;78.00
610;DHT22;292;48.800;9.216;2022-12-18T01:48:46;-5.10;78.00
610;DHT22;292;48.800;9.216;2022-12-18T01:51:14;-5.10;78.00
610;DHT22;292;48.800;9.216;2022-12-18T01:53:42;-5.20;77.80
610;DHT22;292;48.800;9.216;2022-12-18T01:56:14;-5.20;78.00
610;DHT22;292;48.800;9.216;2022-12-18T01:58:50;-5.20;78.00
610;DHT22;292;48.800;9.216;2022-12-18T02:01:20;-5.30;78.10
610;DHT22;292;48.800;9.216;2022-12-18T02:03:48;-5.30;78.10
610;DHT22;292;48.800;9.216;2022-12-18T02:06:18;-5.30;78.40
610;DHT22;292;48.800;9.216;2022-12-18T02:08:58;-5.30;78.60
610;DHT22;292;48.800;9.216;2022-12-18T02:11:37;-5.30;78.60
610;DHT22;292;48.800;9.216;2022-12-18T02:14:16;-5.30;78.80
610;DHT22;292;48.800;9.216;2022-12-18T02:16:51;-5.40;78.80
610;DHT22;292;48.800;9.216;2022-12-18T02:19:39;-5.40;79.00
610;DHT22;292;48.800;9.216;2022-12-18T02:22:20;-5.40;79.10
610;DHT22;292;48.800;9.216;2022-12-18T02:25:00;-5.40;79.30
610;DHT22;292;48.800;9.216;2022-12-18T02:27:32;-5.40;79.10
610;DHT22;292;48.800;9.216;2022-12-18T02:30:02;-5.40;79.40
610;DHT22;292;48.800;9.216;2022-12-18T02:32:32;-5.40;79.40
610;DHT22;292;48.800;9.216;2022-12-18T02:35:03;-5.40;79.40
610;DHT22;292;48.800;9.216;2022-12-18T02:37:32;-5.30;79.60
610;DHT22;292;48.800;9.216;2022-12-18T02:40:03;-5.30;79.60
610;DHT22;292;48.800;9.216;2022-12-18T02:42:32;-5.30;79.60
610;DHT22;292;48.800;9.216;2022-12-18T02:44:59;-5.30;79.70
610;DHT22;292;48.800;9.216;2022-12-18T02:47:30;-5.30;79.70
610;DHT22;292;48.800;9.216;2022-12-18T02:50:07;-5.20;79.70
610;DHT22;292;48.800;9.216;2022-12-18T02:52:44;-5.20;79.70
610;DHT22;292;48.800;9.216;2022-12-18T02:55:23;-5.10;79.70
610;DHT22;292;48.800;9.216;2022-12-18T02:57:55;-5.10;79.70
610;DHT22;292;48.800;9.216;2022-12-18T03:00:25;-5.10;79.40
610;DHT22;292;48.800;9.216;2022-12-18T03:02:57;-5.10;79.40
610;DHT22;292;48.800;9.216;2022-12-18T03:05:31;-5.10;79.40
610;DHT22;292;48.800;9.216;2022-12-18T03:08:03;-5.10;79.40
610;DHT22;292;48.800;9.216;2022-12-18T03:10:35;-5.10;79.10
610;DHT22;292;48.800;9.216;2022-12-18T03:13:08;-5.10;79.10
610;DHT22;292;48.800;9.216;2022-12-18T03:15:38;-5.10;79.30
610;DHT22;292;48.800;9.216;2022-12-18T03:18:11;-5.00;79.10
610;DHT22;292;48.800;9.216;2022-12-18T03:20:41;-5.00;79.10
610;DHT22;292;48.800;9.216;2022-12-18T03:23:13;-5.00;79.00
610;DHT22;292;48.800;9.216;2022-12-18T03:25:44;-5.00;78.80
610;DHT22;292;48.800;9.216;2022-12-18T03:28:16;-5.00;78.70
610;DHT22;292;48.800;9.216;2022-12-18T03:30:46;-5.00;78.60
610;DHT22;292;48.800;9.216;2022-12-18T03:33:17;-5.00;78.40
610;DHT22;292;48.800;9.216;2022-12-18T03:35:45;-5.00;78.40
610;DHT22;292;48.800;9.216;2022-12-18T03:38:12;-5.00;78.40
610;DHT22;292;48.800;9.216;2022-12-18T03:40:48;-5.00;78.40
610;DHT22;292;48.800;9.216;2022-12-18T03:43:25;-5.00;78.10
610;DHT22;292;48.800;9.216;2022-12-18T03:46:02;-5.00;78.00
610;DHT22;292;48.800;9.216;2022-12-18T03:48:32;-5.10;78.00
610;DHT22;292;48.800;9.216;2022-12-18T03:51:07;-5.10;78.00
610;DHT22;292;48.800;9.216;2022-12-18T03:53:39;-5.10;77.80
610;DHT22;292;48.800;9.216;2022-12-18T03:56:08;-5.10;77.80
610;DHT22;292;48.800;9.216;2022-12-18T03:58:38;-5.20;77.50
610;DHT22;292;48.800;9.216;2022-12-18T04:01:08;-5.20;77.50
610;DHT22;292;48.800;9.216;2022-12-18T04:03:38;-5.30;77.50
610;DHT22;292;48.800;9.216;2022-12-18T04:06:06;-5.30;77.40
610;DHT22;292;48.800;9.216;2022-12-18T04:08:34;-5.40;77.10
610;DHT22;292;48.800;9.216;2022-12-18T04:11:02;-5.50;77.30
610;DHT22;292;48.800;9.216;2022-12-18T04:13:32;-5.50;77.40
610;DHT22;292;48.800;9.216;2022-12-18T04:16:00;-5.50;77.50
610;DHT22;292;48.800;9.216;2022-12-18T04:18:28;-5.50;77.50
610;DHT22;292;48.800;9.216;2022-12-18T04:20:55;-5.60;77.50
610;DHT22;292;48.800;9.216;2022-12-18T04:23:22;-5.60;77.70
610;DHT22;292;48.800;9.216;2022-12-18T04:25:49;-5.60;77.70
610;DHT22;292;48.800;9.216;2022-12-18T04:28:16;-5.60;77.80
610;DHT22;292;48.800;9.216;2022-12-18T04:30:43;-5.60;77.70
610;DHT22;292;48.800;9.216;2022-12-18T04:33:12;-5.60;77.80
610;DHT22;292;48.800;9.216;2022-12-18T04:35:43;-5.60;77.70
610;DHT22;292;48.800;9.216;2022-12-18T04:38:10;-5.60;77.50
610;DHT22;292;48.800;9.216;2022-12-18T04:40:37;-5.70;77.70
610;DHT22;292;48.800;9.216;2022-12-18T04:43:05;-5.70;77.70
610;DHT22;292;48.800;9.216;2022-12-18T04:45:32;-5.70;77.70
610;DHT22;292;48.800;9.216;2022-12-18T04:48:00;-5.60;77.70
610;DHT22;292;48.800;9.216;2022-12-18T04:50:29;-5.60;77.70
610;DHT22;292;48.800;9.216;2022-12-18T04:52:57;-5.60;77.50
610;DHT22;292;48.800;9.216;2022-12-18T04:55:24;-5.60;77.50
610;DHT22;292;48.800;9.216;2022-12-18T04:57:51;-5.60;77.40
610;DHT22;292;48.800;9.216;2022-12-18T05:00:18;-5.70;77.10
610;DHT22;292;48.800;9.216;2022-12-18T05:02:46;-5.70;77.30
610;DHT22;292;48.800;9.216;2022-12-18T05:05:13;-5.70;77.30
610;DHT22;292;48.800;9.216;2022-12-18T05:07:41;-5.70;77.30
610;DHT22;292;48.800;9.216;2022-12-18T05:10:09;-5.70;77.40
610;DHT22;292;48.800;9.216;2022-12-18T05:12:36;-5.70;77.10
610;DHT22;292;48.800;9.216;2022-12-18T05:15:24;-5.70;77.00
610;DHT22;292;48.800;9.216;2022-12-18T05:17:51;-5.80;76.80
610;DHT22;292;48.800;9.216;2022-12-18T05:20:18;-5.90;76.80
610;DHT22;292;48.800;9.216;2022-12-18T05:22:46;-6.00;76.40
610;DHT22;292;48.800;9.216;2022-12-18T05:25:14;-6.00;76.50
610;DHT22;292;48.800;9.216;2022-12-18T05:27:41;-6.00;76.70
610;DHT22;292;48.800;9.216;2022-12-18T05:30:09;-6.10;76.70
610;DHT22;292;48.800;9.216;2022-12-18T05:32:37;-6.00;76.50
610;DHT22;292;48.800;9.216;2022-12-18T05:35:06;-6.10;76.40
610;DHT22;292;48.800;9.216;2022-12-18T05:37:33;-6.10;76.20
610;DHT22;292;48.800;9.216;2022-12-18T05:40:02;-6.20;76.20
610;DHT22;292;48.800;9.216;2022-12-18T05:42:30;-6.20;76.20
610;DHT22;292;48.800;9.216;2022-12-18T05:44:57;-6.20;76.40
610;DHT22;292;48.800;9.216;2022-12-18T05:47:24;-6.30;76.20
610;DHT22;292;48.800;9.216;2022-12-18T05:49:51;-6.20;76.40
610;DHT22;292;48.800;9.216;2022-12-18T05:52:18;-6.30;76.20
610;DHT22;292;48.800;9.216;2022-12-18T05:54:45;-6.20;76.40
610;DHT22;292;48.800;9.216;2022-12-18T05:57:13;-6.30;76.10
610;DHT22;292;48.800;9.216;2022-12-18T05:59:41;-6.30;76.10
610;DHT22;292;48.800;9.216;2022-12-18T06:02:08;-6.30;76.00
610;DHT22;292;48.800;9.216;2022-12-18T06:04:35;-6.30;76.00
610;DHT22;292;48.800;9.216;2022-12-18T06:07:01;-6.30;76.00
610;DHT22;292;48.800;9.216;2022-12-18T06:09:30;-6.30;76.00
610;DHT22;292;48.800;9.216;2022-12-18T06:11:57;-6.40;75.50
610;DHT22;292;48.800;9.216;2022-12-18T06:14:26;-6.40;75.40
610;DHT22;292;48.800;9.216;2022-12-18T06:16:53;-6.50;75.20
610;DHT22;292;48.800;9.216;2022-12-18T06:19:20;-6.60;75.20
610;DHT22;292;48.800;9.216;2022-12-18T06:21:47;-6.60;75.10
610;DHT22;292;48.800;9.216;2022-12-18T06:24:14;-6.70;75.20
610;DHT22;292;48.800;9.216;2022-12-18T06:26:42;-6.70;75.20
610;DHT22;292;48.800;9.216;2022-12-18T06:29:08;-6.80;75.10
610;DHT22;292;48.800;9.216;2022-12-18T06:31:37;-6.80;75.10
610;DHT22;292;48.800;9.216;2022-12-18T06:34:04;-6.90;75.10
610;DHT22;292;48.800;9.216;2022-12-18T06:36:31;-7.00;75.00
610;DHT22;292;48.800;9.216;2022-12-18T06:38:59;-7.00;75.10
610;DHT22;292;48.800;9.216;2022-12-18T06:41:26;-7.00;75.10
610;DHT22;292;48.800;9.216;2022-12-18T06:43:53;-7.00;75.10
610;DHT22;292;48.800;9.216;2022-12-18T06:46:20;-7.00;75.10
610;DHT22;292;48.800;9.216;2022-12-18T06:48:49;-7.10;75.10
610;DHT22;292;48.800;9.216;2022-12-18T06:51:18;-7.10;75.10
610;DHT22;292;48.800;9.216;2022-12-18T06:53:45;-7.00;75.20
610;DHT22;292;48.800;9.216;2022-12-18T06:56:12;-7.00;75.20
610;DHT22;292;48.800;9.216;2022-12-18T06:58:39;-7.00;75.20
610;DHT22;292;48.800;9.216;2022-12-18T07:01:09;-7.00;75.10
610;DHT22;292;48.800;9.216;2022-12-18T07:03:37;-7.00;75.20
610;DHT22;292;48.800;9.216;2022-12-18T07:06:06;-6.90;75.20
610;DHT22;292;48.800;9.216;2022-12-18T07:08:39;-6.90;75.20
610;DHT22;292;48.800;9.216;2022-12-18T07:11:06;-6.90;75.40
610;DHT22;292;48.800;9.216;2022-12-18T07:13:33;-6.80;75.20
610;DHT22;292;48.800;9.216;2022-12-18T07:16:07;-6.80;75.10
610;DHT22;292;48.800;9.216;2022-12-18T07:18:34;-6.80;75.10
610;DHT22;292;48.800;9.216;2022-12-18T07:21:07;-6.80;75.10
610;DHT22;292;48.800;9.216;2022-12-18T07:23:35;-6.70;75.10
610;DHT22;292;48.800;9.216;2022-12-18T07:26:03;-6.80;74.80
610;DHT22;292;48.800;9.216;2022-12-18T07:28:30;-6.80;75.00
610;DHT22;292;48.800;9.216;2022-12-18T07:30:58;-6.80;74.80
610;DHT22;292;48.800;9.216;2022-12-18T07:33:26;-6.80;74.80
610;DHT22;292;48.800;9.216;2022-12-18T07:35:52;-6.90;74.80
610;DHT22;292;48.800;9.216;2022-12-18T07:38:22;-6.90;75.00
610;DHT22;292;48.800;9.216;2022-12-18T07:40:49;-6.90;74.70
610;DHT22;292;48.800;9.216;2022-12-18T07:43:16;-6.90;74.80
610;DHT22;292;48.800;9.216;2022-12-18T07:45:43;-6.90;74.80
610;DHT22;292;48.800;9.216;2022-12-18T07:48:10;-6.80;75.00
610;DHT22;292;48.800;9.216;2022-12-18T07:50:37;-6.80;74.80
610;DHT22;292;48.800;9.216;2022-12-18T07:53:05;-6.70;74.80
610;DHT22;292;48.800;9.216;2022-12-18T07:55:33;-6.70;74.70
610;DHT22;292;48.800;9.216;2022-12-18T07:58:01;-6.60;74.70
610;DHT22;292;48.800;9.216;2022-12-18T08:00:29;-6.60;74.70
610;DHT22;292;48.800;9.216;2022-12-18T08:02:56;-6.50;74.70
610;DHT22;292;48.800;9.216;2022-12-18T08:05:23;-6.50;74.50
610;DHT22;292;48.800;9.216;2022-12-18T08:07:50;-6.50;74.50
610;DHT22;292;48.800;9.216;2022-12-18T08:10:17;-6.40;74.70
610;DHT22;292;48.800;9.216;2022-12-18T08:12:49;-6.40;74.70
610;DHT22;292;48.800;9.216;2022-12-18T08:15:16;-6.40;74.50
610;DHT22;292;48.800;9.216;2022-12-18T08:17:43;-6.30;74.50
610;DHT22;292;48.800;9.216;2022-12-18T08:20:11;-6.30;74.50
610;DHT22;292;48.800;9.216;2022-12-18T08:22:39;-6.30;74.40
610;DHT22;292;48.800;9.216;2022-12-18T08:25:07;-6.30;74.40
610;DHT22;292;48.800;9.216;2022-12-18T08:27:34;-6.20;74.50
610;DHT22;292;48.800;9.216;2022-12-18T08:30:03;-6.20;74.10
610;DHT22;292;48.800;9.216;2022-12-18T08:32:30;-6.20;73.80
610;DHT22;292;48.800;9.216;2022-12-18T08:34:58;-6.20;73.80
610;DHT22;292;48.800;9.216;2022-12-18T08:37:25;-6.20;73.90
610;DHT22;292;48.800;9.216;2022-12-18T08:39:52;-6.10;74.10
610;DHT22;292;48.800;9.216;2022-12-18T08:42:19;-6.00;74.10
610;DHT22;292;48.800;9.216;2022-12-18T08:45:06;-5.90;74.10
610;DHT22;292;48.800;9.216;2022-12-18T08:47:33;-5.80;73.90
610;DHT22;292;48.800;9.216;2022-12-18T08:50:00;-5.80;73.90
610;DHT22;292;48.800;9.216;2022-12-18T08:52:27;-5.70;73.80
610;DHT22;292;48.800;9.216;2022-12-18T08:54:54;-5.60;73.80
610;DHT22;292;48.800;9.216;2022-12-18T08:57:21;-5.50;73.70
610;DHT22;292;48.800;9.216;2022-12-18T08:59:48;-5.40;73.70
610;DHT22;292;48.800;9.216;2022-12-18T09:02:17;-5.20;73.80
610;DHT22;292;48.800;9.216;2022-12-18T09:04:46;-5.10;73.80
610;DHT22;292;48.800;9.216;2022-12-18T09:07:13;-4.90;73.70
610;DHT22;292;48.800;9.216;2022-12-18T09:09:41;-4.80;73.40
610;DHT22;292;48.800;9.216;2022-12-18T09:12:07;-4.70;73.40
610;DHT22;292;48.800;9.216;2022-12-18T09:14:35;-4.50;73.40
610;DHT22;292;48.800;9.216;2022-12-18T09:17:02;-4.30;73.40
610;DHT22;292;48.800;9.216;2022-12-18T09:19:31;-4.00;73.70
610;DHT22;292;48.800;9.216;2022-12-18T09:21:58;-3.50;73.80
610;DHT22;292;48.800;9.216;2022-12-18T09:24:25;-3.10;73.50
610;DHT22;292;48.800;9.216;2022-12-18T09:26:53;-2.80;73.10
610;DHT22;292;48.800;9.216;2022-12-18T09:29:20;-2.50;72.10
610;DHT22;292;48.800;9.216;2022-12-18T09:31:47;-2.30;70.90
610;DHT22;292;48.800;9.216;2022-12-18T09:34:15;-2.20;70.00
610;DHT22;292;48.800;9.216;2022-12-18T09:36:44;-2.10;68.90
610;DHT22;292;48.800;9.216;2022-12-18T09:39:12;-1.90;68.50
610;DHT22;292;48.800;9.216;2022-12-18T09:41:45;-1.80;68.50
610;DHT22;292;48.800;9.216;2022-12-18T09:44:19;-1.70;67.60
610;DHT22;292;48.800;9.216;2022-12-18T09:46:49;-1.50;67.00
610;DHT22;292;48.800;9.216;2022-12-18T09:49:20;-1.40;66.60
610;DHT22;292;48.800;9.216;2022-12-18T09:51:54;-1.30;66.30
610;DHT22;292;48.800;9.216;2022-12-18T09:54:26;-1.20;65.70
610;DHT22;292;48.800;9.216;2022-12-18T09:56:57;-1.10;65.60
610;DHT22;292;48.800;9.216;2022-12-18T09:59:29;-1.00;64.90
610;DHT22;292;48.800;9.216;2022-12-18T10:01:57;-1.00;64.60
610;DHT22;292;48.800;9.216;2022-12-18T10:04:26;-0.90;64.60
610;DHT22;292;48.800;9.216;2022-12-18T10:07:03;-0.80;64.60
610;DHT22;292;48.800;9.216;2022-12-18T10:09:37;-0.70;64.30
610;DHT22;292;48.800;9.216;2022-12-18T10:12:10;-0.60;63.80
610;DHT22;292;48.800;9.216;2022-12-18T10:14:45;-0.50;63.60
610;DHT22;292;48.800;9.216;2022-12-18T10:17:20;-0.30;63.40
610;DHT22;292;48.800;9.216;2022-12-18T10:19:52;-0.10;63.10
610;DHT22;292;48.800;9.216;2022-12-18T10:22:30;0.10;62.50
610;DHT22;292;48.800;9.216;2022-12-18T10:25:03;0.20;62.40
610;DHT22;292;48.800;9.216;2022-12-18T10:27:32;0.40;61.80
610;DHT22;292;48.800;9.216;2022-12-18T10:30:00;0.40;61.50
610;DHT22;292;48.800;9.216;2022-12-18T10:32:30;0.60;61.20
610;DHT22;292;48.800;9.216;2022-12-18T10:34:58;0.70;60.80
610;DHT22;292;48.800;9.216;2022-12-18T10:37:28;0.90;60.70
610;DHT22;292;48.800;9.216;2022-12-18T10:40:13;1.10;60.50
610;DHT22;292;48.800;9.216;2022-12-18T10:42:41;1.40;60.20
610;DHT22;292;48.800;9.216;2022-12-18T10:45:12;1.70;60.00
610;DHT22;292;48.800;9.216;2022-12-18T10:47:43;1.80;59.80
610;DHT22;292;48.800;9.216;2022-12-18T10:50:20;2.00;59.60
610;DHT22;292;48.800;9.216;2022-12-18T10:52:58;2.10;59.00
610;DHT22;292;48.800;9.216;2022-12-18T10:55:31;2.10;58.80
610;DHT22;292;48.800;9.216;2022-12-18T10:58:16;2.10;58.60
610;DHT22;292;48.800;9.216;2022-12-18T11:00:44;2.20;58.20
610;DHT22;292;48.800;9.216;2022-12-18T11:03:30;2.20;58.00
610;DHT22;292;48.800;9.216;2022-12-18T11:06:06;2.20;57.70
610;DHT22;292;48.800;9.216;2022-12-18T11:08:35;2.20;57.40
610;DHT22;292;48.800;9.216;2022-12-18T11:11:07;2.20;57.20
610;DHT22;292;48.800;9.216;2022-12-18T11:13:34;2.20;56.90
610;DHT22;292;48.800;9.216;2022-12-18T11:16:03;2.10;56.80
610;DHT22;292;48.800;9.216;2022-12-18T11:18:32;2.10;56.90
610;DHT22;292;48.800;9.216;2022-12-18T11:21:06;2.10;56.90
610;DHT22;292;48.800;9.216;2022-12-18T11:23:43;2.10;57.00
610;DHT22;292;48.800;9.216;2022-12-18T11:26:11;2.20;56.90
610;DHT22;292;48.800;9.216;2022-12-18T11:28:46;2.20;56.60
610;DHT22;292;48.800;9.216;2022-12-18T11:31:20;2.30;56.50
610;DHT22;292;48.800;9.216;2022-12-18T11:33:56;2.40;56.40
610;DHT22;292;48.800;9.216;2022-12-18T11:36:26;2.50;56.10
610;DHT22;292;48.800;9.216;2022-12-18T11:39:01;2.60;56.00
610;DHT22;292;48.800;9.216;2022-12-18T11:41:34;2.70;56.00
610;DHT22;292;48.800;9.216;2022-12-18T11:44:24;2.70;55.80
610;DHT22;292;48.800;9.216;2022-12-18T11:46:56;2.70;55.70
610;DHT22;292;48.800;9.216;2022-12-18T11:49:30;2.70;55.70
610;DHT22;292;48.800;9.216;2022-12-18T11:52:03;2.70;55.70
610;DHT22;292;48.800;9.216;2022-12-18T11:54:33;2.70;55.80
610;DHT22;292;48.800;9.216;2022-12-18T11:57:06;2.70;56.00
610;DHT22;292;48.800;9.216;2022-12-18T11:59:44;2.80;56.00
610;DHT22;292;48.800;9.216;2022-12-18T12:02:30;2.80;55.80
610;DHT22;292;48.800;9.216;2022-12-18T12:05:19;2.80;56.00
610;DHT22;292;48.800;9.216;2022-12-18T12:07:54;2.80;56.10
610;DHT22;292;48.800;9.216;2022-12-18T12:10:39;2.80;56.10
610;DHT22;292;48.800;9.216;2022-12-18T12:13:24;2.80;56.00
610;DHT22;292;48.800;9.216;2022-12-18T12:16:02;2.80;56.00
610;DHT22;292;48.800;9.216;2022-12-18T12:18:41;2.80;56.00
610;DHT22;292;48.800;9.216;2022-12-18T12:21:17;2.70;56.10
610;DHT22;292;48.800;9.216;2022-12-18T12:23:53;2.70;56.00
610;DHT22;292;48.800;9.216;2022-12-18T12:26:33;2.60;56.20
610;DHT22;292;48.800;9.216;2022-12-18T12:29:10;2.60;56.20
610;DHT22;292;48.800;9.216;2022-12-18T12:32:07;2.50;56.40
610;DHT22;292;48.800;9.216;2022-12-18T12:34:42;2.50;56.50
610;DHT22;292;48.800;9.216;2022-12-18T12:37:22;2.50;56.60
610;DHT22;292;48.800;9.216;2022-12-18T12:39:54;2.50;56.60
610;DHT22;292;48.800;9.216;2022-12-18T12:42:32;2.50;56.60
610;DHT22;292;48.800;9.216;2022-12-18T12:45:22;2.50;56.80
610;DHT22;292;48.800;9.216;2022-12-18T12:47:53;2.50;56.90
610;DHT22;292;48.800;9.216;2022-12-18T12:50:22;2.50;56.90
610;DHT22;292;48.800;9.216;2022-12-18T12:52:53;2.50;57.00
610;DHT22;292;48.800;9.216;2022-12-18T12:55:23;2.40;57.00
610;DHT22;292;48.800;9.216;2022-12-18T12:58:01;2.40;57.30
610;DHT22;292;48.800;9.216;2022-12-18T13:00:38;2.40;57.40
610;DHT22;292;48.800;9.216;2022-12-18T13:03:15;2.40;57.60
610;DHT22;292;48.800;9.216;2022-12-18T13:05:52;2.40;57.70
610;DHT22;292;48.800;9.216;2022-12-18T13:08:23;2.30;57.70
610;DHT22;292;48.800;9.216;2022-12-18T13:10:51;2.30;57.80
610;DHT22;292;48.800;9.216;2022-12-18T13:13:50;2.30;58.00
610;DHT22;292;48.800;9.216;2022-12-18T13:16:20;2.30;58.00
610;DHT22;292;48.800;9.216;2022-12-18T13:18:49;2.30;58.00
610;DHT22;292;48.800;9.216;2022-12-18T13:21:23;2.30;58.10
610;DHT22;292;48.800;9.216;2022-12-18T13:23:51;2.30;58.10
610;DHT22;292;48.800;9.216;2022-12-18T13:26:33;2.30;58.10
610;DHT22;292;48.800;9.216;2022-12-18T13:29:03;2.30;58.20
610;DHT22;292;48.800;9.216;2022-12-18T13:34:36;2.30;58.40
610;DHT22;292;48.800;9.216;2022-12-18T13:37:42;2.30;58.50
610;DHT22;292;48.800;9.216;2022-12-18T13:43:31;2.30;58.60
610;DHT22;292;48.800;9.216;2022-12-18T13:46:16;2.30;58.60
610;DHT22;292;48.800;9.216;2022-12-18T13:48:55;2.30;58.80
610;DHT22;292;48.800;9.216;2022-12-18T13:51:23;2.30;58.80
610;DHT22;292;48.800;9.216;2022-12-18T13:53:53;2.30;58.90
610;DHT22;292;48.800;9.216;2022-12-18T13:56:24;2.30;58.90
610;DHT22;292;48.800;9.216;2022-12-18T13:59:14;2.30;58.90
610;DHT22;292;48.800;9.216;2022-12-18T14:01:58;2.20;59.00
610;DHT22;292;48.800;9.216;2022-12-18T14:04:27;2.20;59.00
610;DHT22;292;48.800;9.216;2022-12-18T14:07:09;2.20;59.20
610;DHT22;292;48.800;9.216;2022-12-18T14:09:40;2.20;59.20
610;DHT22;292;48.800;9.216;2022-12-18T14:12:15;2.10;59.40
610;DHT22;292;48.800;9.216;2022-12-18T14:15:01;2.10;59.60
610;DHT22;292;48.800;9.216;2022-12-18T14:17:31;2.10;59.70
610;DHT22;292;48.800;9.216;2022-12-18T14:19:59;2.10;59.70
610;DHT22;292;48.800;9.216;2022-12-18T14:22:27;2.10;60.00
610;DHT22;292;48.800;9.216;2022-12-18T14:25:16;2.10;60.00
610;DHT22;292;48.800;9.216;2022-12-18T14:27:45;2.10;60.10
610;DHT22;292;48.800;9.216;2022-12-18T14:30:25;2.00;60.20
610;DHT22;292;48.800;9.216;2022-12-18T14:33:11;2.00;60.40
610;DHT22;292;48.800;9.216;2022-12-18T14:35:40;2.00;60.40
610;DHT22;292;48.800;9.216;2022-12-18T14:38:24;2.00;60.50
610;DHT22;292;48.800;9.216;2022-12-18T14:40:59;1.90;60.70
610;DHT22;292;48.800;9.216;2022-12-18T14:43:27;1.90;60.80
610;DHT22;292;48.800;9.216;2022-12-18T14:45:55;1.80;60.80
610;DHT22;292;48.800;9.216;2022-12-18T14:48:36;1.80;61.00
610;DHT22;292;48.800;9.216;2022-12-18T14:51:12;1.80;61.20
610;DHT22;292;48.800;9.216;2022-12-18T14:53:46;1.70;61.40
610;DHT22;292;48.800;9.216;2022-12-18T14:56:16;1.60;61.50
610;DHT22;292;48.800;9.216;2022-12-18T14:58:46;1.60;61.70
610;DHT22;292;48.800;9.216;2022-12-18T15:01:35;1.50;61.80
610;DHT22;292;48.800;9.216;2022-12-18T15:04:18;1.40;62.10
610;DHT22;292;48.800;9.216;2022-12-18T15:07:03;1.40;62.30
610;DHT22;292;48.800;9.216;2022-12-18T15:09:31;1.40;62.50
610;DHT22;292;48.800;9.216;2022-12-18T15:12:00;1.30;62.80
610;DHT22;292;48.800;9.216;2022-12-18T15:14:38;1.30;63.30
610;DHT22;292;48.800;9.216;2022-12-18T15:17:14;1.30;63.40
610;DHT22;292;48.800;9.216;2022-12-18T15:19:45;1.30;63.60
610;DHT22;292;48.800;9.216;2022-12-18T15:22:25;1.30;63.70
610;DHT22;292;48.800;9.216;2022-12-18T15:24:54;1.20;63.80
610;DHT22;292;48.800;9.216;2022-12-18T15:27:25;1.20;64.10
610;DHT22;292;48.800;9.216;2022-12-18T15:30:19;1.10;64.10
610;DHT22;292;48.800;9.216;2022-12-18T15:32:47;1.10;64.40
610;DHT22;292;48.800;9.216;2022-12-18T15:35:19;1.10;64.70
610;DHT22;292;48.800;9.216;2022-12-18T15:37:47;1.00;64.70
610;DHT22;292;48.800;9.216;2022-12-18T15:40:17;1.00;65.00
610;DHT22;292;48.800;9.216;2022-12-18T15:42:46;0.90;65.10
610;DHT22;292;48.800;9.216;2022-12-18T15:45:31;0.90;65.30
610;DHT22;292;48.800;9.216;2022-12-18T15:47:58;0.80;65.40
610;DHT22;292;48.800;9.216;2022-12-18T15:50:28;0.70;65.60
610;DHT22;292;48.800;9.216;2022-12-18T15:52:55;0.70;66.00
610;DHT22;292;48.800;9.216;2022-12-18T15:55:23;0.60;66.20
610;DHT22;292;48.800;9.216;2022-12-18T15:58:09;0.60;66.30
610;DHT22;292;48.800;9.216;2022-12-18T16:00:38;0.50;66.30
610;DHT22;292;48.800;9.216;2022-12-18T16:03:08;0.50;66.40
610;DHT22;292;48.800;9.216;2022-12-18T16:05:36;0.40;66.60
610;DHT22;292;48.800;9.216;2022-12-18T16:08:03;0.40;66.70
610;DHT22;292;48.800;9.216;2022-12-18T16:10:31;0.30;66.90
610;DHT22;292;48.800;9.216;2022-12-18T16:12:58;0.30;67.00
610;DHT22;292;48.800;9.216;2022-12-18T16:15:26;0.30;67.20
610;DHT22;292;48.800;9.216;2022-12-18T16:17:53;0.30;67.20
610;DHT22;292;48.800;9.216;2022-12-18T16:20:22;0.30;67.30
610;DHT22;292;48.800;9.216;2022-12-18T16:22:54;0.30;67.30
610;DHT22;292;48.800;9.216;2022-12-18T16:25:23;0.20;67.50
610;DHT22;292;48.800;9.216;2022-12-18T16:27:54;0.20;67.60
610;DHT22;292;48.800;9.216;2022-12-18T16:30:23;0.20;67.70
610;DHT22;292;48.800;9.216;2022-12-18T16:32:52;0.20;67.90
610;DHT22;292;48.800;9.216;2022-12-18T16:35:19;0.20;67.90
610;DHT22;292;48.800;9.216;2022-12-18T16:37:46;0.20;68.00
610;DHT22;292;48.800;9.216;2022-12-18T16:40:16;0.20;68.00
610;DHT22;292;48.800;9.216;2022-12-18T16:42:44;0.20;68.20
610;DHT22;292;48.800;9.216;2022-12-18T16:45:14;0.20;68.20
610;DHT22;292;48.800;9.216;2022-12-18T16:47:41;0.20;68.20
610;DHT22;292;48.800;9.216;2022-12-18T16:50:09;0.20;68.30
610;DHT22;292;48.800;9.216;2022-12-18T16:52:36;0.20;68.30
610;DHT22;292;48.800;9.216;2022-12-18T16:55:04;0.20;68.30
610;DHT22;292;48.800;9.216;2022-12-18T16:57:33;0.20;68.30
610;DHT22;292;48.800;9.216;2022-12-18T17:00:00;0.10;68.50
610;DHT22;292;48.800;9.216;2022-12-18T17:02:28;0.10;68.60
610;DHT22;292;48.800;9.216;2022-12-18T17:04:56;0.10;68.50
610;DHT22;292;48.800;9.216;2022-12-18T17:07:24;0.00;68.60
610;DHT22;292;48.800;9.216;2022-12-18T17:09:52;0.00;68.90
610;DHT22;292;48.800;9.216;2022-12-18T17:12:20;-0.10;68.90
610;DHT22;292;48.800;9.216;2022-12-18T17:14:49;-0.10;68.90